Time;durP1;ratioP1;P1;durP2;ratioP2;P2;SDS_P1;SDS_P2;PMS_P1;PMS_P2;Temp;Humidity;BMP_temperature;BMP_pressure;BME280_temperature;BME280_humidity;BME280_pressure;Samples;Min_cycle;Max_cycle;Signal;HPM_P1;HPM_P2
2023/04/28 00:00:52;;;;;;;17.27;9.90;;;;;;;;;;5012927;28;20469;-61
2023/04/28 00:03:18;;;;;;;16.90;9.93;;;;;;;;;;5012520;28;20080;-60
2023/04/28 00:05:44;;;;;;;20.65;11.23;;;;;;;;;;5012178;28;20026;-63
2023/04/28 00:08:10;;;;;;;19.50;10.73;;;;;;;;;;5012284;28;20112;-62
2023/04/28 00:10:36;;;;;;;18.33;10.70;;;;;;;;;;5013786;28;20060;-61
2023/04/28 00:13:02;;;;;;;19.50;10.75;;;;;;;;;;5017644;28;20060;-61
2023/04/28 00:15:28;;;;;;;20.75;10.70;;;;;;;;;;4997381;28;20026;-63
2023/04/28 00:17:54;;;;;;;17.35;10.10;;;;;;;;;;5024125;28;20025;-62
2023/04/28 00:20:20;;;;;;;16.65;10.15;;;;;;;;;;5013588;28;20029;-63
2023/04/28 00:22:48;;;;;;;22.13;10.20;;;;;;;;;;5005731;28;20396;-63
2023/04/28 00:25:14;;;;;;;20.65;11.73;;;;;;;;;;5031357;28;20059;-62
2023/04/28 00:27:40;;;;;;;16.80;9.48;;;;;;;;;;5031421;28;20029;-64
2023/04/28 00:30:06;;;;;;;16.92;9.50;;;;;;;;;;5031709;28;20087;-63
2023/04/28 00:32:32;;;;;;;18.52;9.77;;;;;;;;;;5013988;28;20025;-61
2023/04/28 00:34:58;;;;;;;18.48;10.73;;;;;;;;;;5031574;28;20029;-64
2023/04/28 00:37:24;;;;;;;17.35;10.48;;;;;;;;;;5031216;28;20025;-64
2023/04/28 00:39:54;;;;;;;17.08;10.07;;;;;;;;;;5031751;28;20041;-63
2023/04/28 00:42:20;;;;;;;19.63;10.57;;;;;;;;;;5031407;28;20542;-64
2023/04/28 00:44:46;;;;;;;21.00;11.02;;;;;;;;;;5031525;28;20494;-63
2023/04/28 00:47:12;;;;;;;16.75;9.63;;;;;;;;;;5031222;28;20022;-63
2023/04/28 00:49:39;;;;;;;17.63;10.68;;;;;;;;;;5031575;28;20049;-61
2023/04/28 00:52:06;;;;;;;18.63;10.95;;;;;;;;;;5013831;28;20028;-63
2023/04/28 00:54:36;;;;;;;18.10;10.15;;;;;;;;;;5031481;28;20036;-61
2023/04/28 00:57:03;;;;;;;18.73;9.80;;;;;;;;;;5031351;28;20029;-63
2023/04/28 00:59:29;;;;;;;17.30;10.05;;;;;;;;;;5031496;28;20083;-63
2023/04/28 01:01:56;;;;;;;18.85;10.32;;;;;;;;;;5031604;28;20491;-63
2023/04/28 01:04:22;;;;;;;15.90;9.73;;;;;;;;;;5030878;28;20026;-61
2023/04/28 01:06:52;;;;;;;20.45;10.02;;;;;;;;;;5031124;28;20057;-64
2023/04/28 01:09:18;;;;;;;18.73;10.50;;;;;;;;;;5031380;28;20469;-62
2023/04/28 01:11:44;;;;;;;18.60;10.48;;;;;;;;;;5031268;28;20028;-62
2023/04/28 01:14:10;;;;;;;16.98;10.23;;;;;;;;;;5031343;28;20021;-63
2023/04/28 01:16:37;;;;;;;20.10;10.05;;;;;;;;;;5013438;28;20068;-62
2023/04/28 01:19:06;;;;;;;16.25;9.88;;;;;;;;;;5031265;28;20033;-63
2023/04/28 01:21:33;;;;;;;17.42;9.90;;;;;;;;;;5030937;28;20026;-63
2023/04/28 01:23:59;;;;;;;19.10;10.50;;;;;;;;;;5030873;28;20025;-62
2023/04/28 01:26:25;;;;;;;19.77;10.80;;;;;;;;;;5013503;28;20164;-61
2023/04/28 01:28:52;;;;;;;17.80;10.60;;;;;;;;;;5031001;28;20591;-63
2023/04/28 01:31:18;;;;;;;17.77;9.80;;;;;;;;;;5013775;28;20087;-63
2023/04/28 01:33:44;;;;;;;19.52;11.10;;;;;;;;;;5037327;28;20022;-62
2023/04/28 01:36:10;;;;;;;18.00;10.20;;;;;;;;;;5030150;28;20101;-62
2023/04/28 01:38:36;;;;;;;17.02;10.15;;;;;;;;;;5031029;28;20097;-68
2023/04/28 01:41:02;;;;;;;18.52;9.68;;;;;;;;;;5030357;28;20388;-63
2023/04/28 01:43:31;;;;;;;18.05;10.20;;;;;;;;;;5030644;28;20030;-61
2023/04/28 01:45:57;;;;;;;17.23;10.18;;;;;;;;;;5030498;28;20034;-62
2023/04/28 01:48:23;;;;;;;18.85;10.65;;;;;;;;;;5030564;28;20092;-60
2023/04/28 01:50:48;;;;;;;18.95;10.93;;;;;;;;;;5016060;28;20118;-61
2023/04/28 01:53:19;;;;;;;19.70;11.07;;;;;;;;;;5011476;28;20049;-61
2023/04/28 01:55:45;;;;;;;17.77;10.18;;;;;;;;;;4997162;28;20048;-64
2023/04/28 01:58:11;;;;;;;21.20;9.98;;;;;;;;;;5014628;28;20033;-64
2023/04/28 02:00:37;;;;;;;21.23;10.93;;;;;;;;;;5014872;28;20033;-61
2023/04/28 02:03:03;;;;;;;17.27;10.88;;;;;;;;;;5015185;28;20462;-63
2023/04/28 02:05:29;;;;;;;20.20;10.68;;;;;;;;;;5014127;28;20152;-64
2023/04/28 02:07:55;;;;;;;19.33;11.10;;;;;;;;;;5014365;28;20037;-60
2023/04/28 02:10:21;;;;;;;17.33;10.80;;;;;;;;;;5014590;28;20026;-62
2023/04/28 02:12:47;;;;;;;17.45;10.75;;;;;;;;;;5014739;28;20080;-64
2023/04/28 02:15:14;;;;;;;19.05;10.52;;;;;;;;;;5020558;28;20013;-63
2023/04/28 02:17:40;;;;;;;19.33;10.32;;;;;;;;;;5019041;28;20425;-62
2023/04/28 02:20:06;;;;;;;20.02;10.63;;;;;;;;;;5006723;28;20079;-63
2023/04/28 02:22:32;;;;;;;19.30;11.23;;;;;;;;;;5023475;28;20021;-60
2023/04/28 02:24:58;;;;;;;17.60;10.48;;;;;;;;;;5012739;28;20509;-63
2023/04/28 02:27:24;;;;;;;18.67;10.93;;;;;;;;;;5024331;28;20105;-63
2023/04/28 02:29:51;;;;;;;18.77;11.13;;;;;;;;;;5025903;28;20025;-63
2023/04/28 02:32:17;;;;;;;18.60;11.18;;;;;;;;;;5034483;28;20040;-60
2023/04/28 02:34:43;;;;;;;18.80;11.60;;;;;;;;;;5016029;28;20026;-63
2023/04/28 02:37:09;;;;;;;18.83;10.60;;;;;;;;;;5034565;28;20039;-64
2023/04/28 02:39:35;;;;;;;17.98;10.10;;;;;;;;;;5016733;28;20029;-60
2023/04/28 02:42:04;;;;;;;18.90;10.80;;;;;;;;;;5034349;28;20029;-63
2023/04/28 02:44:30;;;;;;;;;;;;;;;;;;5034703;28;20025;-62
2023/04/28 02:46:56;;;;;;;20.40;11.02;;;;;;;;;;5034228;28;19912;-59
2023/04/28 02:49:22;;;;;;;18.13;10.10;;;;;;;;;;5034489;28;20028;-63
2023/04/28 02:51:47;;;;;;;17.75;11.75;;;;;;;;;;5034472;28;20028;-63
2023/04/28 02:54:13;;;;;;;19.05;11.07;;;;;;;;;;5034057;28;20076;-63
2023/04/28 02:56:40;;;;;;;17.58;10.95;;;;;;;;;;5034140;28;20049;-65
2023/04/28 02:59:06;;;;;;;20.10;12.75;;;;;;;;;;5034120;28;20021;-63
2023/04/28 03:01:33;;;;;;;18.15;11.32;;;;;;;;;;5033667;28;20044;-63
2023/04/28 03:03:59;;;;;;;17.52;11.05;;;;;;;;;;5033956;28;20059;-63
2023/04/28 03:06:25;;;;;;;18.85;11.02;;;;;;;;;;5032780;28;20388;-62
2023/04/28 03:08:51;;;;;;;18.98;11.23;;;;;;;;;;5033651;28;20029;-63
2023/04/28 03:11:17;;;;;;;19.13;11.88;;;;;;;;;;5016056;28;20536;-63
2023/04/28 03:13:43;;;;;;;19.40;11.38;;;;;;;;;;5033856;28;20093;-62
2023/04/28 03:16:09;;;;;;;19.23;11.00;;;;;;;;;;5033445;28;20397;-64
2023/04/28 03:18:35;;;;;;;18.33;11.30;;;;;;;;;;5033616;28;20025;-61
2023/04/28 03:21:01;;;;;;;19.15;10.88;;;;;;;;;;5033613;28;20032;-61
2023/04/28 03:23:27;;;;;;;25.00;13.00;;;;;;;;;;5033325;28;20064;-62
2023/04/28 03:25:53;;;;;;;18.58;11.35;;;;;;;;;;5033734;28;20021;-63
2023/04/28 03:28:19;;;;;;;17.95;11.13;;;;;;;;;;5015711;28;20044;-63
2023/04/28 03:30:45;;;;;;;19.15;11.65;;;;;;;;;;5033335;28;20052;-64
2023/04/28 03:33:11;;;;;;;20.48;11.68;;;;;;;;;;5015393;28;20396;-64
2023/04/28 03:35:37;;;;;;;21.13;11.82;;;;;;;;;;5033058;28;20040;-63
2023/04/28 03:38:03;;;;;;;21.05;11.73;;;;;;;;;;5033833;28;20038;-61
2023/04/28 03:40:29;;;;;;;20.40;11.65;;;;;;;;;;5033871;28;20112;-61
2023/04/28 03:42:56;;;;;;;20.45;12.50;;;;;;;;;;5033791;28;20433;-62
2023/04/28 03:45:22;;;;;;;18.17;11.55;;;;;;;;;;5032837;28;20029;-63
2023/04/28 03:47:48;;;;;;;18.70;11.57;;;;;;;;;;5015430;28;20451;-64
2023/04/28 03:50:14;;;;;;;20.02;11.82;;;;;;;;;;5032680;28;20026;-64
2023/04/28 03:52:40;;;;;;;21.08;12.18;;;;;;;;;;5032650;28;20037;-62
2023/04/28 03:55:06;;;;;;;21.08;12.55;;;;;;;;;;5032602;28;20496;-64
2023/04/28 03:57:32;;;;;;;19.55;12.27;;;;;;;;;;5032513;28;20459;-64
2023/04/28 03:59:58;;;;;;;22.65;12.23;;;;;;;;;;5032592;28;20120;-62
2023/04/28 04:02:24;;;;;;;18.70;12.15;;;;;;;;;;5032704;28;20029;-61
2023/04/28 04:04:51;;;;;;;19.05;12.77;;;;;;;;;;5031890;28;20022;-63
2023/04/28 04:07:17;;;;;;;22.13;13.10;;;;;;;;;;5027085;28;20038;-63
2023/04/28 04:09:43;;;;;;;19.75;12.48;;;;;;;;;;5005193;28;20041;-64
2023/04/28 04:12:09;;;;;;;21.13;12.68;;;;;;;;;;5023933;28;20473;-64
2023/04/28 04:14:35;;;;;;;19.52;12.27;;;;;;;;;;5031841;28;20041;-62
2023/04/28 04:17:00;;;;;;;20.30;12.57;;;;;;;;;;5032133;28;20029;-62
2023/04/28 04:19:27;;;;;;;19.35;12.68;;;;;;;;;;5028539;28;20083;-60
2023/04/28 04:21:53;;;;;;;21.77;12.77;;;;;;;;;;5020588;28;20092;-61
2023/04/28 04:24:19;;;;;;;21.15;12.85;;;;;;;;;;5023741;28;20097;-62
2023/04/28 04:26:45;;;;;;;23.63;13.70;;;;;;;;;;5032864;28;20017;-62
2023/04/28 04:29:11;;;;;;;23.25;13.43;;;;;;;;;;5032424;28;20036;-62
2023/04/28 04:31:37;;;;;;;22.63;14.23;;;;;;;;;;5032066;28;20021;-61
2023/04/28 04:34:03;;;;;;;29.25;13.50;;;;;;;;;;5031287;28;20030;-62
2023/04/28 04:36:29;;;;;;;25.13;13.07;;;;;;;;;;5032360;28;20052;-62
2023/04/28 04:38:55;;;;;;;21.80;12.98;;;;;;;;;;5032013;28;20052;-60
2023/04/28 04:41:21;;;;;;;22.63;12.90;;;;;;;;;;5014291;28;20022;-62
2023/04/28 04:43:47;;;;;;;27.33;13.75;;;;;;;;;;5031824;28;20436;-62
2023/04/28 04:46:13;;;;;;;20.10;13.23;;;;;;;;;;5032032;28;20072;-61
2023/04/28 04:48:39;;;;;;;19.00;12.75;;;;;;;;;;5032330;28;20377;-61
2023/04/28 04:51:06;;;;;;;21.48;13.52;;;;;;;;;;5032015;28;20029;-62
2023/04/28 04:53:32;;;;;;;21.73;13.80;;;;;;;;;;5032061;28;20101;-59
2023/04/28 04:55:58;;;;;;;22.38;12.82;;;;;;;;;;5031556;28;20049;-59
2023/04/28 04:58:24;;;;;;;22.38;12.55;;;;;;;;;;5031848;28;20389;-62
2023/04/28 05:00:50;;;;;;;20.92;12.95;;;;;;;;;;5013729;28;20036;-60
2023/04/28 05:03:16;;;;;;;21.88;13.02;;;;;;;;;;5013631;28;20033;-61
2023/04/28 05:05:44;;;;;;;23.08;12.90;;;;;;;;;;5031281;28;20025;-59
2023/04/28 05:08:10;;;;;;;21.65;13.05;;;;;;;;;;5013718;28;20400;-60
2023/04/28 05:10:36;;;;;;;23.20;12.75;;;;;;;;;;5018342;28;20492;-59
2023/04/28 05:13:02;;;;;;;21.80;13.57;;;;;;;;;;5022914;28;20013;-62
2023/04/28 05:15:28;;;;;;;21.50;13.20;;;;;;;;;;5011849;28;20010;-62
2023/04/28 05:17:54;;;;;;;24.65;13.52;;;;;;;;;;5005330;28;20449;-62
2023/04/28 05:20:20;;;;;;;22.55;14.68;;;;;;;;;;5024029;28;20026;-62
2023/04/28 05:22:46;;;;;;;22.92;14.02;;;;;;;;;;5041140;22;20492;-55
2023/04/28 05:25:12;;;;;;;22.02;13.93;;;;;;;;;;5023836;28;20060;-60
2023/04/28 05:27:39;;;;;;;25.33;13.70;;;;;;;;;;5050889;28;20033;-55
2023/04/28 05:30:09;;;;;;;25.50;12.80;;;;;;;;;;5053849;28;20017;-60
2023/04/28 05:32:35;;;;;;;19.55;13.38;;;;;;;;;;5054523;28;20488;-60
2023/04/28 05:35:01;;;;;;;24.70;13.40;;;;;;;;;;5054747;28;20491;-59
2023/04/28 05:37:28;;;;;;;22.65;12.75;;;;;;;;;;5055019;28;20158;-59
2023/04/28 05:39:54;;;;;;;22.02;14.02;;;;;;;;;;5054604;28;20094;-59
2023/04/28 05:42:20;;;;;;;23.45;13.93;;;;;;;;;;5053941;28;20578;-56
2023/04/28 05:44:46;;;;;;;22.23;13.90;;;;;;;;;;5054255;28;20024;-52
2023/04/28 05:47:12;;;;;;;21.52;14.55;;;;;;;;;;5036443;28;20033;-59
2023/04/28 05:49:38;;;;;;;23.33;14.02;;;;;;;;;;5036263;28;20111;-58
2023/04/28 05:52:04;;;;;;;25.92;14.88;;;;;;;;;;5054414;28;20403;-59
2023/04/28 05:54:30;;;;;;;23.92;14.95;;;;;;;;;;5054214;28;20026;-59
2023/04/28 05:56:56;;;;;;;28.77;14.45;;;;;;;;;;5054466;28;20029;-57
2023/04/28 06:34:22;;;;;;;23.67;15.65;;;;;;;;;;5053430;28;20393;-60
2023/04/28 06:36:48;;;;;;;21.27;14.07;;;;;;;;;;5035915;28;20110;-58
2023/04/28 06:39:14;;;;;;;20.92;14.57;;;;;;;;;;5053671;28;20559;-58
2023/04/28 06:41:40;;;;;;;24.13;13.93;;;;;;;;;;5053703;28;20071;-58
2023/04/28 06:44:06;;;;;;;25.52;14.63;;;;;;;;;;5035141;28;20021;-58
2023/04/28 06:46:32;;;;;;;24.13;14.98;;;;;;;;;;5053487;28;20477;-60
2023/04/28 06:48:58;;;;;;;26.45;14.18;;;;;;;;;;5053311;28;20083;-60
2023/04/28 06:51:25;;;;;;;22.70;14.70;;;;;;;;;;5053302;28;20067;-60
2023/04/28 06:53:52;;;;;;;22.33;14.80;;;;;;;;;;5023982;28;20620;-57
2023/04/28 06:56:18;;;;;;;22.42;14.57;;;;;;;;;;5052377;28;20029;-59
2023/04/28 06:58:44;;;;;;;24.55;14.93;;;;;;;;;;5034370;28;20038;-59
2023/04/28 07:01:10;;;;;;;23.88;13.27;;;;;;;;;;5014755;28;20025;-60
2023/04/28 07:03:37;;;;;;;22.08;14.77;;;;;;;;;;5032498;28;20107;-60
2023/04/28 07:06:03;;;;;;;21.50;14.13;;;;;;;;;;5032452;28;20164;-57
2023/04/28 07:08:29;;;;;;;22.20;13.48;;;;;;;;;;5032615;28;20033;-60
2023/04/28 07:10:55;;;;;;;26.10;14.10;;;;;;;;;;5032393;28;20017;-55
2023/04/28 07:13:21;;;;;;;26.33;14.45;;;;;;;;;;5032127;28;20492;-57
2023/04/28 07:15:47;;;;;;;23.20;16.00;;;;;;;;;;5014396;28;20025;-59
2023/04/28 07:18:13;;;;;;;21.92;13.63;;;;;;;;;;5032362;28;20060;-58
2023/04/28 07:20:40;;;;;;;24.25;13.43;;;;;;;;;;5032445;28;20037;-59
2023/04/28 07:23:06;;;;;;;21.70;13.68;;;;;;;;;;5031963;28;20116;-60
2023/04/28 07:25:32;;;;;;;22.00;13.90;;;;;;;;;;5014363;28;20061;-57
2023/04/28 07:27:58;;;;;;;22.23;15.05;;;;;;;;;;5032077;28;20032;-60
2023/04/28 07:30:25;;;;;;;22.83;15.23;;;;;;;;;;5014430;28;20524;-55
2023/04/28 07:32:51;;;;;;;24.45;15.25;;;;;;;;;;5032067;28;20370;-63
2023/04/28 07:35:17;;;;;;;23.50;15.35;;;;;;;;;;5032033;28;20021;-58
2023/04/28 07:37:43;;;;;;;23.73;14.82;;;;;;;;;;5031287;28;20549;-57
2023/04/28 07:40:09;;;;;;;25.08;14.68;;;;;;;;;;5036728;28;20100;-58
2023/04/28 07:42:35;;;;;;;21.65;14.48;;;;;;;;;;5041380;28;20073;-59
2023/04/28 07:45:01;;;;;;;21.83;14.63;;;;;;;;;;5051710;28;20032;-59
2023/04/28 07:47:28;;;;;;;22.92;15.57;;;;;;;;;;5051686;28;20110;-57
2023/04/28 07:49:54;;;;;;;24.67;14.55;;;;;;;;;;5052241;28;20021;-58
2023/04/28 07:52:20;;;;;;;23.35;15.23;;;;;;;;;;5051006;28;20044;-55
2023/04/28 07:54:46;;;;;;;21.67;15.23;;;;;;;;;;5036089;28;20025;-58
2023/04/28 07:57:12;;;;;;;23.10;14.10;;;;;;;;;;5032089;28;20075;-58
2023/04/28 07:59:38;;;;;;;22.23;14.40;;;;;;;;;;5040015;28;20660;-58
2023/04/28 08:02:05;;;;;;;20.33;14.60;;;;;;;;;;5044819;28;20024;-58
2023/04/28 08:04:32;;;;;;;22.33;15.32;;;;;;;;;;5051361;28;20025;-57
2023/04/28 08:06:59;;;;;;;24.50;15.32;;;;;;;;;;5051302;28;20013;-59
2023/04/28 08:09:25;;;;;;;21.85;15.52;;;;;;;;;;5051451;28;20388;-57
2023/04/28 08:11:51;;;;;;;21.13;15.27;;;;;;;;;;5051387;28;20020;-59
2023/04/28 08:14:17;;;;;;;21.38;15.07;;;;;;;;;;5051063;28;20029;-58
2023/04/28 08:16:45;;;;;;;23.77;15.10;;;;;;;;;;5051266;28;20113;-58
2023/04/28 08:19:11;;;;;;;23.70;15.93;;;;;;;;;;5051241;28;20032;-59
2023/04/28 08:21:37;;;;;;;23.50;16.75;;;;;;;;;;5033250;28;20025;-56
2023/04/28 08:24:03;;;;;;;29.13;17.95;;;;;;;;;;5032646;28;20120;-59
2023/04/28 08:26:30;;;;;;;25.10;18.10;;;;;;;;;;5033142;28;20191;-57
2023/04/28 08:28:56;;;;;;;29.67;17.70;;;;;;;;;;5035167;28;20025;-59
2023/04/28 08:31:22;;;;;;;24.17;18.55;;;;;;;;;;5030693;28;20393;-57
2023/04/28 08:33:50;;;;;;;23.83;17.20;;;;;;;;;;5012954;28;20028;-53
2023/04/28 08:36:16;;;;;;;23.92;18.35;;;;;;;;;;5030550;28;20043;-60
2023/04/28 08:38:43;;;;;;;25.40;17.90;;;;;;;;;;5030763;28;20036;-57
2023/04/28 08:41:09;;;;;;;24.55;19.10;;;;;;;;;;5031096;28;20021;-61
2023/04/28 08:43:36;;;;;;;24.35;18.63;;;;;;;;;;5031039;28;20545;-60
2023/04/28 08:46:06;;;;;;;24.55;17.50;;;;;;;;;;5030551;28;20030;-60
2023/04/28 08:48:38;;;;;;;25.67;17.45;;;;;;;;;;5030816;28;20048;-60
2023/04/28 08:51:06;;;;;;;23.85;17.25;;;;;;;;;;5031125;28;20047;-61
2023/04/28 08:53:36;;;;;;;24.20;18.35;;;;;;;;;;5030894;28;20028;-62
2023/04/28 08:56:04;;;;;;;25.95;18.40;;;;;;;;;;5030882;28;20369;-61
2023/04/28 08:58:30;;;;;;;21.90;16.00;;;;;;;;;;5031009;28;20120;-61
2023/04/28 09:00:56;;;;;;;24.15;17.10;;;;;;;;;;5030765;28;20454;-60
2023/04/28 09:03:22;;;;;;;21.27;17.00;;;;;;;;;;5031010;28;20030;-59
2023/04/28 09:05:48;;;;;;;26.85;17.63;;;;;;;;;;5034744;28;20484;-61
2023/04/28 09:08:14;;;;;;;23.52;16.08;;;;;;;;;;5034175;28;20087;-62
2023/04/28 09:10:41;;;;;;;25.75;17.35;;;;;;;;;;5016480;28;20033;-61
2023/04/28 09:13:07;;;;;;;24.05;16.20;;;;;;;;;;5017171;28;20156;-61
2023/04/28 09:15:35;;;;;;;21.80;16.20;;;;;;;;;;5034257;28;20056;-61
2023/04/28 09:18:01;;;;;;;24.10;17.38;;;;;;;;;;5017026;28;20508;-58
2023/04/28 09:20:28;;;;;;;22.90;16.20;;;;;;;;;;5034903;28;20404;-62
2023/04/28 09:22:56;;;;;;;22.33;15.93;;;;;;;;;;5034671;28;20033;-60
2023/04/28 09:25:23;;;;;;;20.92;14.68;;;;;;;;;;5016888;28;20086;-61
2023/04/28 09:27:49;;;;;;;22.55;15.95;;;;;;;;;;5034336;28;20030;-63
2023/04/28 09:30:15;;;;;;;20.23;15.18;;;;;;;;;;5034766;28;20047;-61
2023/04/28 09:32:42;;;;;;;21.63;15.77;;;;;;;;;;5016903;28;20385;-61
2023/04/28 09:35:08;;;;;;;21.02;15.05;;;;;;;;;;5034048;28;20022;-59
2023/04/28 09:37:36;;;;;;;20.48;14.82;;;;;;;;;;5033469;28;20029;-57
2023/04/28 09:40:05;;;;;;;22.20;15.60;;;;;;;;;;5033625;28;20522;-61
2023/04/28 09:42:32;;;;;;;20.25;14.48;;;;;;;;;;5033217;28;20450;-61
2023/04/28 09:44:59;;;;;;;21.45;15.50;;;;;;;;;;5033043;28;20101;-62
2023/04/28 09:47:25;;;;;;;21.65;15.35;;;;;;;;;;5024145;28;20028;-60
2023/04/28 09:49:55;;;;;;;20.42;14.52;;;;;;;;;;5019931;28;20071;-64
2023/04/28 09:52:22;;;;;;;20.75;15.02;;;;;;;;;;5053788;28;20384;-61
2023/04/28 09:54:49;;;;;;;21.58;15.10;;;;;;;;;;5040270;28;20029;-61
2023/04/28 09:57:17;;;;;;;20.10;14.45;;;;;;;;;;5033847;28;20032;-61
2023/04/28 09:59:46;;;;;;;20.55;14.40;;;;;;;;;;5033905;28;20025;-61
2023/04/28 10:02:14;;;;;;;19.30;14.02;;;;;;;;;;5034341;28;20083;-60
2023/04/28 10:04:40;;;;;;;19.87;14.37;;;;;;;;;;5034121;28;20026;-60
2023/04/28 10:07:07;;;;;;;19.67;13.65;;;;;;;;;;5015677;28;20108;-60
2023/04/28 10:09:34;;;;;;;19.08;14.73;;;;;;;;;;5033574;28;20504;-60
2023/04/28 10:12:00;;;;;;;19.88;14.60;;;;;;;;;;5033566;28;20052;-62
2023/04/28 10:14:27;;;;;;;21.23;14.55;;;;;;;;;;5032582;28;20092;-59
2023/04/28 10:16:53;;;;;;;20.33;15.00;;;;;;;;;;5033412;28;20044;-61
2023/04/28 10:19:19;;;;;;;19.50;14.18;;;;;;;;;;5033291;28;20033;-59
2023/04/28 10:21:52;;;;;;;19.92;15.02;;;;;;;;;;5015561;28;20113;-60
2023/04/28 10:24:21;;;;;;;19.75;15.32;;;;;;;;;;5032895;28;20125;-60
2023/04/28 10:27:04;;;;;;;20.15;14.32;;;;;;;;;;5015444;28;20057;-59
2023/04/28 10:29:35;;;;;;;21.45;14.70;;;;;;;;;;5033268;28;20041;-60
2023/04/28 10:32:20;;;;;;;22.63;15.23;;;;;;;;;;5033236;28;20025;-60
2023/04/28 10:34:47;;;;;;;21.00;15.38;;;;;;;;;;5015469;28;20029;-60
2023/04/28 10:37:14;;;;;;;22.20;15.02;;;;;;;;;;5033419;28;20112;-60
2023/04/28 10:39:40;;;;;;;21.85;15.13;;;;;;;;;;5032696;28;20048;-60
2023/04/28 10:42:26;;;;;;;21.58;15.95;;;;;;;;;;5032783;28;20053;-62
2023/04/28 10:44:52;;;;;;;19.77;15.07;;;;;;;;;;5032491;28;20109;-61
2023/04/28 10:47:18;;;;;;;20.52;14.93;;;;;;;;;;5032698;28;20041;-60
2023/04/28 10:49:56;;;;;;;19.60;14.85;;;;;;;;;;5015181;28;20122;-60
2023/04/28 10:52:43;;;;;;;21.90;15.73;;;;;;;;;;5032885;28;20043;-60
2023/04/28 10:55:30;;;;;;;19.42;14.93;;;;;;;;;;5023545;28;20044;-60
2023/04/28 10:58:14;;;;;;;21.90;15.57;;;;;;;;;;5033105;28;20524;-60
2023/04/28 11:00:41;;;;;;;20.95;15.85;;;;;;;;;;5032776;28;20025;-58
2023/04/28 11:03:07;;;;;;;23.08;16.38;;;;;;;;;;5033092;28;20032;-58
2023/04/28 11:05:36;;;;;;;19.80;14.75;;;;;;;;;;5032648;28;20029;-58
2023/04/28 11:08:20;;;;;;;22.58;15.40;;;;;;;;;;5032216;28;20029;-60
2023/04/28 11:11:05;;;;;;;20.75;16.33;;;;;;;;;;5032311;28;20049;-62
2023/04/28 11:13:33;;;;;;;21.42;15.65;;;;;;;;;;5014578;28;20389;-61
2023/04/28 11:16:04;;;;;;;22.80;16.07;;;;;;;;;;5014052;28;20049;-56
2023/04/28 11:18:49;;;;;;;21.70;15.50;;;;;;;;;;5031653;28;20675;-61
2023/04/28 11:21:16;;;;;;;23.27;17.48;;;;;;;;;;5014368;28;20013;-62
2023/04/28 11:23:43;;;;;;;21.23;16.95;;;;;;;;;;5047745;22;20050;-56
2023/04/28 11:26:09;;;;;;;22.38;17.55;;;;;;;;;;5011679;28;20030;-61
2023/04/28 11:28:36;;;;;;;20.65;17.02;;;;;;;;;;4995631;28;20482;-60
2023/04/28 11:31:12;;;;;;;21.45;16.67;;;;;;;;;;4996528;28;20033;-58
2023/04/28 11:33:39;;;;;;;20.23;16.85;;;;;;;;;;5013038;28;20100;-61
2023/04/28 11:36:06;;;;;;;24.38;18.20;;;;;;;;;;5012505;28;20083;-61
2023/04/28 11:38:42;;;;;;;21.45;16.85;;;;;;;;;;5012642;28;20101;-61
2023/04/28 11:41:08;;;;;;;22.17;17.13;;;;;;;;;;5011247;28;20034;-63
2023/04/28 11:43:34;;;;;;;21.13;17.63;;;;;;;;;;5010954;28;20029;-63
2023/04/28 11:46:00;;;;;;;23.55;17.98;;;;;;;;;;4993402;28;20049;-60
2023/04/28 11:48:26;;;;;;;22.13;18.48;;;;;;;;;;5004055;28;20044;-61
2023/04/28 11:50:53;;;;;;;22.52;18.27;;;;;;;;;;5012684;28;20067;-62
2023/04/28 11:53:19;;;;;;;21.67;16.95;;;;;;;;;;4995682;28;20512;-61
2023/04/28 11:55:45;;;;;;;23.48;17.23;;;;;;;;;;5013092;28;20026;-59
2023/04/28 11:58:18;;;;;;;22.88;17.70;;;;;;;;;;4663025;28;9999802;-61
2023/04/28 12:00:44;;;;;;;21.17;18.00;;;;;;;;;;5009927;28;20028;-62
2023/04/28 12:03:10;;;;;;;21.42;17.92;;;;;;;;;;4996225;28;20038;-62
2023/04/28 12:05:43;;;;;;;21.67;18.13;;;;;;;;;;5010173;28;20033;-62
2023/04/28 12:08:09;;;;;;;23.50;17.20;;;;;;;;;;5010252;28;20041;-59
2023/04/28 12:10:35;;;;;;;23.70;18.42;;;;;;;;;;5010119;28;20044;-60
2023/04/28 12:13:15;;;;;;;21.80;17.90;;;;;;;;;;5009971;28;20068;-59
2023/04/28 12:15:41;;;;;;;22.45;17.00;;;;;;;;;;4995980;28;20026;-63
2023/04/28 12:18:11;;;;;;;22.35;18.00;;;;;;;;;;4973007;28;20212;-60
2023/04/28 12:20:38;;;;;;;22.33;17.58;;;;;;;;;;4973430;28;20410;-62
2023/04/28 12:23:04;;;;;;;23.13;19.35;;;;;;;;;;4989801;28;20041;-61
2023/04/28 12:25:32;;;;;;;23.83;19.15;;;;;;;;;;4990147;28;20422;-60
2023/04/28 12:27:59;;;;;;;24.65;19.27;;;;;;;;;;4990549;28;20026;-60
2023/04/28 12:30:29;;;;;;;27.60;20.13;;;;;;;;;;4972940;28;20030;-61
2023/04/28 12:32:56;;;;;;;23.70;19.15;;;;;;;;;;5004500;28;20121;-62
2023/04/28 12:35:23;;;;;;;22.90;18.73;;;;;;;;;;5009883;28;20101;-58
2023/04/28 12:37:49;;;;;;;24.13;20.92;;;;;;;;;;5009843;28;20030;-61
2023/04/28 12:40:15;;;;;;;23.90;19.00;;;;;;;;;;5009437;28;20084;-59
2023/04/28 12:42:41;;;;;;;23.58;18.17;;;;;;;;;;5009938;28;20065;-61
2023/04/28 12:45:08;;;;;;;25.27;20.75;;;;;;;;;;5012155;28;20029;-61
2023/04/28 12:47:34;;;;;;;23.45;19.20;;;;;;;;;;5011186;28;20061;-63
2023/04/28 12:50:00;;;;;;;22.60;17.90;;;;;;;;;;5012936;28;20033;-59
2023/04/28 12:52:26;;;;;;;24.85;19.95;;;;;;;;;;4995422;28;20034;-63
2023/04/28 12:54:52;;;;;;;24.48;20.05;;;;;;;;;;5002404;28;20022;-59
2023/04/28 12:57:19;;;;;;;23.38;19.85;;;;;;;;;;5012419;28;20474;-62
2023/04/28 12:59:49;;;;;;;23.08;18.80;;;;;;;;;;5012418;28;20121;-59
2023/04/28 13:02:15;;;;;;;24.88;19.88;;;;;;;;;;5013262;28;20022;-61
2023/04/28 13:04:47;;;;;;;23.27;19.20;;;;;;;;;;5012071;28;20749;-59
2023/04/28 13:07:13;;;;;;;22.52;18.63;;;;;;;;;;5012251;28;20050;-59
2023/04/28 13:09:41;;;;;;;24.27;20.73;;;;;;;;;;4662642;28;10000320;-58
2023/04/28 13:12:07;;;;;;;24.27;19.10;;;;;;;;;;5006504;28;20413;-62
2023/04/28 13:14:33;;;;;;;24.40;19.40;;;;;;;;;;5008620;28;20038;-60
2023/04/28 13:17:00;;;;;;;23.88;20.38;;;;;;;;;;5009802;28;20429;-57
2023/04/28 13:19:27;;;;;;;25.45;20.88;;;;;;;;;;5008650;28;20026;-62
2023/04/28 13:21:53;;;;;;;23.92;20.25;;;;;;;;;;4993308;28;20084;-58
2023/04/28 13:24:19;;;;;;;24.85;19.55;;;;;;;;;;5009491;28;20528;-60
2023/04/28 13:26:45;;;;;;;23.73;20.55;;;;;;;;;;5011988;28;20104;-58
2023/04/28 13:29:13;;;;;;;23.45;19.88;;;;;;;;;;5012037;28;20026;-59
2023/04/28 13:31:39;;;;;;;24.55;20.30;;;;;;;;;;5011734;28;20066;-56
2023/04/28 13:34:06;;;;;;;25.63;20.20;;;;;;;;;;5011499;28;20105;-57
2023/04/28 13:36:33;;;;;;;27.10;22.48;;;;;;;;;;5011440;28;20537;-58
2023/04/28 13:38:59;;;;;;;25.20;21.48;;;;;;;;;;5011349;28;20065;-56
2023/04/28 13:41:25;;;;;;;26.38;20.58;;;;;;;;;;5012413;28;20037;-60
2023/04/28 13:43:52;;;;;;;23.08;20.25;;;;;;;;;;5006922;28;20071;-60
2023/04/28 13:46:18;;;;;;;24.92;22.23;;;;;;;;;;5010190;28;20025;-59
2023/04/28 13:48:44;;;;;;;26.98;22.50;;;;;;;;;;5009106;28;20026;-61
2023/04/28 13:51:11;;;;;;;27.98;23.00;;;;;;;;;;5013083;28;20112;-57
2023/04/28 13:53:37;;;;;;;27.25;22.17;;;;;;;;;;5013808;28;20014;-60
2023/04/28 13:56:04;;;;;;;27.83;22.77;;;;;;;;;;5004148;28;20108;-59
2023/04/28 13:58:29;;;;;;;27.10;22.40;;;;;;;;;;5013978;28;20104;-60
2023/04/28 14:00:56;;;;;;;27.73;22.08;;;;;;;;;;5013423;28;20070;-57
2023/04/28 14:03:23;;;;;;;27.15;23.33;;;;;;;;;;5014270;28;20042;-58
2023/04/28 14:05:50;;;;;;;30.15;25.75;;;;;;;;;;5015208;28;20141;-57
2023/04/28 14:08:17;;;;;;;29.45;25.58;;;;;;;;;;5015566;28;20026;-58
2023/04/28 14:10:43;;;;;;;31.33;25.85;;;;;;;;;;5015462;28;20030;-53
2023/04/28 14:13:09;;;;;;;32.10;26.20;;;;;;;;;;5014343;28;20034;-59
2023/04/28 14:15:35;;;;;;;30.55;25.65;;;;;;;;;;5014903;28;20077;-59
2023/04/28 14:18:01;;;;;;;29.52;25.33;;;;;;;;;;5015049;28;20607;-60
2023/04/28 14:20:27;;;;;;;29.02;24.77;;;;;;;;;;5015286;28;20030;-56
2023/04/28 14:22:53;;;;;;;28.70;23.73;;;;;;;;;;5015184;28;20081;-58
2023/04/28 14:25:19;;;;;;;28.27;23.67;;;;;;;;;;5015053;28;20026;-60
2023/04/28 14:27:46;;;;;;;30.52;24.85;;;;;;;;;;5015385;28;20022;-60
2023/04/28 14:30:13;;;;;;;28.55;23.80;;;;;;;;;;5013548;28;20022;-59
2023/04/28 14:32:40;;;;;;;28.60;24.25;;;;;;;;;;5015096;28;20327;-56
2023/04/28 14:35:06;;;;;;;30.63;26.58;;;;;;;;;;5013766;28;20053;-54
2023/04/28 14:37:32;;;;;;;30.55;25.40;;;;;;;;;;5015501;28;20109;-60
2023/04/28 14:40:00;;;;;;;32.97;27.17;;;;;;;;;;5015070;28;20040;-59
2023/04/28 14:42:30;;;;;;;31.40;24.88;;;;;;;;;;5014670;28;20116;-59
2023/04/28 14:44:56;;;;;;;29.52;23.80;;;;;;;;;;5015071;28;20088;-59
2023/04/28 14:47:23;;;;;;;29.05;24.17;;;;;;;;;;5015045;28;20512;-59
2023/04/28 14:49:50;;;;;;;27.35;23.05;;;;;;;;;;5013548;28;20075;-60
2023/04/28 14:52:16;;;;;;;30.77;23.95;;;;;;;;;;5012005;28;20018;-58